Time;durP1;ratioP1;P1;durP2;ratioP2;P2;SDS_P1;SDS_P2;PMS_P1;PMS_P2;Temp;Humidity;BMP_temperature;BMP_pressure;BME280_temperature;BME280_humidity;BME280_pressure;Samples;Min_cycle;Max_cycle;Signal;HPM_P1;HPM_P2
2022/11/14 00:00:42;;;;;;;31.90;18.92;;;5.00;99.90;;;;;;4808241;29;20046;-86
2022/11/14 00:03:10;;;;;;;28.20;17.08;;;5.00;99.90;;;;;;4806670;29;20135;-86
2022/11/14 00:05:45;;;;;;;27.33;17.48;;;6.40;99.90;;;;;;4794292;29;20046;-86
2022/11/14 00:08:17;;;;;;;27.65;17.23;;;5.30;99.90;;;;;;4794734;29;20808;-85
2022/11/14 00:10:45;;;;;;;29.45;17.15;;;5.10;99.90;;;;;;4807651;29;20115;-86
2022/11/14 00:13:11;;;;;;;27.08;17.88;;;5.00;99.90;;;;;;4810632;29;20389;-85
2022/11/14 00:15:37;;;;;;;28.70;16.83;;;5.10;99.90;;;;;;4801441;29;20066;-86
2022/11/14 00:18:03;;;;;;;29.60;16.85;;;5.00;99.90;;;;;;4791087;29;20053;-85
2022/11/14 00:20:29;;;;;;;26.27;15.75;;;5.00;99.90;;;;;;4791922;29;20057;-86
2022/11/14 00:22:55;;;;;;;28.60;16.92;;;5.20;99.90;;;;;;4792108;29;20061;-86
2022/11/14 00:25:21;;;;;;;29.20;16.65;;;5.60;99.90;;;;;;4791148;29;20150;-85
2022/11/14 00:27:47;;;;;;;25.48;15.98;;;5.10;99.90;;;;;;4791216;29;20133;-86
2022/11/14 00:30:13;;;;;;;27.13;16.38;;;6.60;99.90;;;;;;4799408;29;20047;-87
2022/11/14 00:32:38;;;;;;;29.35;16.40;;;5.00;99.90;;;;;;4792447;29;20493;-86
2022/11/14 00:35:05;;;;;;;28.08;15.10;;;3.80;99.90;;;;;;4800001;29;20056;-86
2022/11/14 00:37:31;;;;;;;29.10;15.45;;;;;;;;;;4807000;29;20061;-86
2022/11/14 00:39:57;;;;;;;27.83;15.45;;;5.00;99.90;;;;;;4807811;29;20066;-86
2022/11/14 00:42:22;;;;;;;29.77;16.00;;;6.20;99.90;;;;;;4792871;29;20102;-86
2022/11/14 00:44:48;;;;;;;30.73;15.93;;;6.90;99.90;;;;;;4794904;29;20195;-85
2022/11/14 00:47:14;;;;;;;28.50;15.93;;;5.20;99.90;;;;;;4792476;29;20466;-85
2022/11/14 00:49:40;;;;;;;29.63;15.27;;;5.10;99.90;;;;;;4795253;29;20042;-84
2022/11/14 00:52:05;;;;;;;31.17;16.02;;;6.20;99.90;;;;;;4779809;29;20122;-84
2022/11/14 00:54:31;;;;;;;29.17;15.82;;;5.30;99.90;;;;;;4797698;29;20057;-84
2022/11/14 00:56:57;;;;;;;30.02;14.95;;;6.50;99.90;;;;;;4805392;29;20136;-87
2022/11/14 00:59:23;;;;;;;26.90;14.73;;;6.90;99.90;;;;;;4797799;29;20748;-84
2022/11/14 01:01:48;;;;;;;30.13;14.70;;;5.30;99.90;;;;;;4796016;29;20069;-85
2022/11/14 01:04:14;;;;;;;31.35;15.35;;;6.80;99.90;;;;;;4796849;29;20054;-84
2022/11/14 01:06:40;;;;;;;31.77;16.10;;;3.80;99.90;;;;;;4813388;29;20461;-84
2022/11/14 01:09:06;;;;;;;30.13;15.75;;;5.40;99.90;;;;;;4800248;29;20637;-85
2022/11/14 01:11:32;;;;;;;28.67;14.85;;;6.70;99.90;;;;;;4799482;29;20086;-85
2022/11/14 01:13:58;;;;;;;30.55;15.48;;;5.50;99.90;;;;;;4812235;29;20157;-85
2022/11/14 01:16:26;;;;;;;34.25;16.40;;;6.40;99.90;;;;;;4787277;29;20061;-85
2022/11/14 01:18:52;;;;;;;28.05;14.88;;;5.70;99.90;;;;;;4799016;29;20050;-86
2022/11/14 01:21:17;;;;;;;30.88;16.15;;;4.40;99.90;;;;;;4805591;29;20056;-86
2022/11/14 01:23:43;;;;;;;34.83;16.48;;;5.90;99.90;;;;;;4801185;29;20055;-84
2022/11/14 01:26:12;;;;;;;35.00;16.02;;;6.80;99.90;;;;;;4797251;29;20066;-84
2022/11/14 01:28:39;;;;;;;29.42;15.70;;;7.10;99.90;;;;;;4813042;29;20493;-84
2022/11/14 01:31:15;;;;;;;30.92;15.05;;;5.40;99.90;;;;;;4812351;29;20054;-84
2022/11/14 01:33:41;;;;;;;31.02;16.50;;;5.40;99.90;;;;;;4827582;29;20042;-85
2022/11/14 01:36:08;;;;;;;32.40;15.20;;;5.80;99.90;;;;;;4794879;29;20139;-84
2022/11/14 01:38:34;;;;;;;37.92;17.52;;;5.60;99.90;;;;;;4802022;29;20054;-85
2022/11/14 01:41:00;;;;;;;32.20;16.05;;;5.70;99.90;;;;;;4797691;29;20050;-86
2022/11/14 01:43:36;;;;;;;36.03;17.05;;;4.60;99.90;;;;;;4797911;29;20122;-84
2022/11/14 01:46:03;;;;;;;32.40;16.67;;;5.50;99.90;;;;;;4812117;29;20057;-85
2022/11/14 01:48:41;;;;;;;31.35;16.33;;;5.50;99.90;;;;;;4815172;29;20061;-85
2022/11/14 01:51:31;;;;;;;32.95;15.75;;;5.60;99.90;;;;;;4798367;29;20133;-85
2022/11/14 01:54:00;;;;;;;32.13;15.95;;;5.70;99.90;;;;;;4794897;29;20233;-84
2022/11/14 01:56:40;;;;;;;33.85;17.92;;;7.20;99.90;;;;;;4797621;29;20047;-84
2022/11/14 01:59:13;;;;;;;36.50;16.73;;;5.60;99.90;;;;;;4809550;29;20404;-84
2022/11/14 02:01:46;;;;;;;34.90;17.23;;;5.70;99.90;;;;;;4798882;29;20062;-85
2022/11/14 02:04:18;;;;;;;34.42;16.77;;;5.70;99.90;;;;;;4800586;29;20065;-85
2022/11/14 02:06:49;;;;;;;31.17;15.80;;;5.60;99.90;;;;;;4810803;29;20054;-84
2022/11/14 02:09:15;;;;;;;35.28;17.45;;;5.70;99.90;;;;;;4795219;29;20046;-84
2022/11/14 02:11:45;;;;;;;33.97;17.17;;;5.70;99.90;;;;;;4812088;29;20397;-84
2022/11/14 02:14:11;;;;;;;33.60;17.58;;;5.80;99.90;;;;;;4795656;29;20141;-84
2022/11/14 02:16:41;;;;;;;37.47;17.17;;;5.70;99.90;;;;;;4809141;29;20129;-84
2022/11/14 02:19:08;;;;;;;33.67;16.58;;;5.60;99.90;;;;;;4795151;29;20364;-85
2022/11/14 02:21:33;;;;;;;33.33;16.98;;;5.60;99.90;;;;;;4808864;29;20062;-83
2022/11/14 02:23:59;;;;;;;34.03;17.73;;;6.20;99.90;;;;;;4811696;29;20050;-85
2022/11/14 02:26:25;;;;;;;33.15;17.17;;;5.80;99.90;;;;;;4794025;29;20058;-86
2022/11/14 02:28:51;;;;;;;31.65;16.55;;;5.80;99.90;;;;;;4794130;29;20149;-85
2022/11/14 02:31:19;;;;;;;33.83;16.60;;;7.20;99.90;;;;;;4795014;29;20054;-85
2022/11/14 02:33:45;;;;;;;38.70;18.13;;;6.10;99.90;;;;;;4812308;29;20505;-84
2022/11/14 02:36:11;;;;;;;37.00;17.85;;;5.80;99.90;;;;;;4781834;29;20050;-84
2022/11/14 02:38:37;;;;;;;39.00;17.85;;;5.80;99.90;;;;;;4795056;29;20050;-84
2022/11/14 02:41:02;;;;;;;36.30;17.30;;;5.70;99.90;;;;;;4796216;29;20051;-84
2022/11/14 02:43:28;;;;;;;38.22;18.67;;;5.80;99.90;;;;;;4810235;29;20681;-85
2022/11/14 02:45:54;;;;;;;37.67;18.08;;;5.90;99.90;;;;;;4811015;29;20436;-85
2022/11/14 02:48:22;;;;;;;32.00;16.42;;;5.80;99.90;;;;;;4794362;29;20066;-85
2022/11/14 02:50:48;;;;;;;39.05;18.98;;;5.80;99.90;;;;;;4807468;29;20493;-84
2022/11/14 02:53:14;;;;;;;34.00;18.38;;;5.80;99.90;;;;;;4794995;29;20054;-84
2022/11/14 02:55:40;;;;;;;31.88;16.55;;;6.70;99.90;;;;;;4791741;29;20055;-83
2022/11/14 02:58:06;;;;;;;33.70;18.63;;;7.00;99.90;;;;;;4796657;29;20082;-84
2022/11/14 03:00:32;;;;;;;32.50;18.25;;;5.80;99.90;;;;;;4779497;29;20072;-84
2022/11/14 03:02:58;;;;;;;35.63;18.58;;;5.80;99.90;;;;;;4809066;29;20046;-84
2022/11/14 03:05:24;;;;;;;33.47;18.05;;;6.50;99.90;;;;;;4793304;29;20046;-84
2022/11/14 03:07:54;;;;;;;34.92;17.70;;;5.90;99.90;;;;;;4809271;29;20057;-84
2022/11/14 03:10:21;;;;;;;37.72;19.17;;;5.80;99.90;;;;;;4805495;29;20081;-84
2022/11/14 03:12:51;;;;;;;32.95;17.90;;;5.80;99.90;;;;;;4794843;29;20577;-84
2022/11/14 03:15:17;;;;;;;31.52;17.65;;;5.90;99.90;;;;;;4792576;29;20549;-85
2022/11/14 03:17:43;;;;;;;35.05;18.63;;;7.30;99.90;;;;;;4793761;29;20058;-84
2022/11/14 03:20:09;;;;;;;35.53;19.58;;;5.90;99.90;;;;;;4805148;29;20081;-85
2022/11/14 03:22:35;;;;;;;32.17;18.38;;;6.00;99.90;;;;;;4795540;29;20115;-85
2022/11/14 03:25:00;;;;;;;39.85;19.88;;;6.00;99.90;;;;;;4800136;29;20545;-85
2022/11/14 03:27:26;;;;;;;39.45;20.95;;;4.70;99.90;;;;;;4808731;29;21847;-85
2022/11/14 03:29:52;;;;;;;35.85;19.58;;;6.30;99.90;;;;;;4796982;29;20055;-84
2022/11/14 03:32:18;;;;;;;38.08;20.08;;;6.10;99.90;;;;;;4797074;29;20078;-84
2022/11/14 03:34:43;;;;;;;35.00;18.92;;;6.20;99.90;;;;;;4782938;29;20050;-84
2022/11/14 03:37:10;;;;;;;35.42;19.73;;;6.90;99.90;;;;;;4781694;29;20759;-84
2022/11/14 03:39:35;;;;;;;38.95;20.20;;;6.30;99.90;;;;;;4808569;29;20509;-83
2022/11/14 03:42:01;;;;;;;36.97;20.38;;;7.30;99.90;;;;;;4809600;29;20046;-83
2022/11/14 03:44:27;;;;;;;33.75;20.25;;;5.80;99.90;;;;;;4797350;29;20053;-83
2022/11/14 03:46:53;;;;;;;33.40;19.48;;;7.50;99.90;;;;;;4794134;29;20447;-84
2022/11/14 03:49:19;;;;;;;36.63;20.17;;;6.20;99.90;;;;;;4795886;29;20170;-84
2022/11/14 03:51:44;;;;;;;35.45;19.13;;;7.40;99.90;;;;;;4794638;29;20062;-83
2022/11/14 03:54:10;;;;;;;35.65;18.30;;;5.80;99.90;;;;;;4795525;29;20062;-84
2022/11/14 03:56:36;;;;;;;36.17;20.27;;;6.80;99.90;;;;;;4794956;29;20058;-83
2022/11/14 03:59:02;;;;;;;30.17;17.98;;;5.80;99.90;;;;;;4778009;29;20086;-84
2022/11/14 04:01:28;;;;;;;34.28;20.55;;;5.80;99.90;;;;;;4791082;29;20158;-84
2022/11/14 04:03:54;;;;;;;37.38;19.85;;;5.80;99.90;;;;;;4807824;29;20060;-84
2022/11/14 04:06:20;;;;;;;36.38;19.70;;;5.80;99.90;;;;;;4793433;29;20062;-85
2022/11/14 04:08:46;;;;;;;36.45;19.90;;;5.80;99.90;;;;;;4807982;29;20046;-84
2022/11/14 04:11:12;;;;;;;40.17;22.85;;;5.90;99.90;;;;;;4778156;29;20074;-85
2022/11/14 04:13:37;;;;;;;38.20;20.52;;;4.70;99.90;;;;;;4799995;29;20115;-84
2022/11/14 04:16:07;;;;;;;39.22;20.73;;;5.90;99.90;;;;;;4794738;29;20050;-84
2022/11/14 04:18:33;;;;;;;39.83;20.33;;;6.70;99.90;;;;;;4796599;29;20101;-84
2022/11/14 04:20:58;;;;;;;38.42;20.75;;;6.00;99.90;;;;;;4797436;29;20122;-84
2022/11/14 04:23:24;;;;;;;42.08;22.15;;;7.30;99.90;;;;;;4795185;29;20073;-85
2022/11/14 04:25:50;;;;;;;41.15;22.55;;;5.90;99.90;;;;;;4779975;29;20246;-84
2022/11/14 04:28:19;;;;;;;38.90;21.33;;;6.00;99.90;;;;;;4793265;29;20470;-84
2022/11/14 04:30:45;;;;;;;38.90;22.33;;;6.20;99.90;;;;;;4796135;29;20054;-84
2022/11/14 04:33:13;;;;;;;40.60;22.73;;;5.90;99.90;;;;;;4798044;29;20058;-83
2022/11/14 04:35:39;;;;;;;42.97;22.52;;;6.20;99.90;;;;;;4808833;29;20050;-83
2022/11/14 04:38:05;;;;;;;41.15;22.33;;;;;;;;;;4795108;29;21009;-84
2022/11/14 04:40:34;;;;;;;43.60;23.33;;;5.90;99.90;;;;;;4809263;29;20067;-85
2022/11/14 04:42:59;;;;;;;42.13;21.58;;;7.10;99.90;;;;;;4826459;29;20057;-84
2022/11/14 04:45:25;;;;;;;49.38;23.50;;;5.80;99.90;;;;;;4779837;29;20058;-85
2022/11/14 04:47:51;;;;;;;53.55;25.70;;;6.10;99.90;;;;;;4793729;29;20543;-83
2022/11/14 04:50:17;;;;;;;43.55;23.17;;;5.90;99.90;;;;;;4779989;29;20050;-85
2022/11/14 04:52:43;;;;;;;51.13;26.02;;;6.00;99.90;;;;;;4796132;29;20106;-84
2022/11/14 04:55:09;;;;;;;48.65;26.38;;;5.90;99.90;;;;;;4795920;29;20059;-84
2022/11/14 04:57:35;;;;;;;50.58;26.05;;;5.90;99.90;;;;;;4794162;29;20396;-84
2022/11/14 05:00:00;;;;;;;51.65;25.92;;;5.80;99.90;;;;;;4807269;29;20060;-84
2022/11/14 05:02:29;;;;;;;49.92;27.40;;;4.70;99.90;;;;;;4778913;29;20046;-83
2022/11/14 05:04:54;;;;;;;52.40;27.85;;;7.00;99.90;;;;;;4807903;29;20043;-84
2022/11/14 05:07:20;;;;;;;49.67;25.58;;;5.90;99.90;;;;;;4780201;29;20042;-84
2022/11/14 05:09:46;;;;;;;43.78;25.02;;;7.60;99.90;;;;;;4807058;29;20050;-85
2022/11/14 05:12:12;;;;;;;53.45;27.02;;;5.70;99.90;;;;;;4794446;29;20095;-84
2022/11/14 05:14:38;;;;;;;50.30;26.58;;;5.70;99.90;;;;;;4811060;29;20249;-84
2022/11/14 05:17:03;;;;;;;52.33;27.17;;;5.80;99.90;;;;;;4798000;29;20064;-84
2022/11/14 05:19:29;;;;;;;53.60;25.92;;;6.30;99.90;;;;;;4791176;29;20129;-84
2022/11/14 05:21:55;;;;;;;53.70;26.23;;;7.00;99.90;;;;;;4806650;29;20057;-85
2022/11/14 05:24:21;;;;;;;57.97;26.92;;;5.80;99.90;;;;;;4789185;29;20062;-84
2022/11/14 05:26:49;;;;;;;48.63;25.50;;;5.70;99.90;;;;;;4805374;29;20096;-84
2022/11/14 05:29:14;;;;;;;57.70;28.55;;;5.70;99.90;;;;;;4806931;29;20062;-85
2022/11/14 05:31:40;;;;;;;52.90;25.83;;;5.80;99.90;;;;;;4804771;29;20047;-85
2022/11/14 05:34:06;;;;;;;49.38;25.92;;;6.50;99.90;;;;;;4793592;29;20065;-84
2022/11/14 05:36:32;;;;;;;51.17;25.38;;;7.20;99.90;;;;;;4793352;29;20162;-84
2022/11/14 05:39:07;;;;;;;49.03;26.13;;;5.20;99.90;;;;;;4794441;29;20122;-84
2022/11/14 05:41:36;;;;;;;49.95;26.08;;;5.50;99.90;;;;;;4797606;29;20097;-85
2022/11/14 05:44:07;;;;;;;51.42;25.88;;;6.80;99.90;;;;;;4798264;29;20058;-84
2022/11/14 05:46:35;;;;;;;53.17;25.90;;;5.50;99.90;;;;;;4782547;29;20141;-84
2022/11/14 05:49:01;;;;;;;55.50;27.75;;;5.50;99.90;;;;;;4811245;29;20059;-84
2022/11/14 05:51:27;;;;;;;51.92;25.88;;;5.50;99.90;;;;;;4795994;29;20158;-85
2022/11/14 05:53:54;;;;;;;52.92;27.42;;;4.50;99.90;;;;;;4797783;29;20057;-84
2022/11/14 05:56:20;;;;;;;49.97;25.90;;;5.80;99.90;;;;;;4803624;29;20050;-84
2022/11/14 05:58:46;;;;;;;52.10;26.77;;;5.40;99.90;;;;;;4801886;29;20512;-84
2022/11/14 06:01:14;;;;;;;53.00;25.88;;;5.50;99.90;;;;;;4796132;29;20051;-86
2022/11/14 06:03:43;;;;;;;51.10;26.85;;;5.40;99.90;;;;;;4793579;29;20068;-84
2022/11/14 06:06:11;;;;;;;54.75;27.48;;;6.80;99.90;;;;;;4810629;29;20095;-84
2022/11/14 06:08:37;;;;;;;49.95;26.02;;;4.10;99.90;;;;;;4795714;29;20050;-84
2022/11/14 06:11:09;;;;;;;58.33;28.55;;;5.40;99.90;;;;;;4792831;29;20374;-83
2022/11/14 06:13:37;;;;;;;56.17;27.77;;;5.40;99.90;;;;;;4795753;29;20103;-83
2022/11/14 06:16:18;;;;;;;55.17;25.58;;;5.30;99.90;;;;;;4794130;29;20054;-81
2022/11/14 06:18:44;;;;;;;55.78;27.58;;;5.30;99.90;;;;;;4793272;29;20340;-83
2022/11/14 06:21:17;;;;;;;54.10;27.02;;;5.40;99.90;;;;;;4796478;29;20046;-84
2022/11/14 06:23:43;;;;;;;56.40;26.80;;;5.40;99.90;;;;;;4795202;29;20057;-84
2022/11/14 06:26:29;;;;;;;55.75;28.20;;;5.50;99.90;;;;;;4778104;29;21332;-84
2022/11/14 06:29:02;;;;;;;56.97;27.88;;;5.40;99.90;;;;;;4810494;29;20081;-84
2022/11/14 06:31:28;;;;;;;56.70;26.02;;;6.40;99.90;;;;;;4809512;29;20050;-86
2022/11/14 06:33:56;;;;;;;58.83;28.35;;;5.70;99.90;;;;;;4798361;29;20061;-83
2022/11/14 06:36:22;;;;;;;57.47;28.23;;;5.30;99.90;;;;;;4795318;29;20061;-84
2022/11/14 06:38:48;;;;;;;56.58;27.70;;;5.40;99.90;;;;;;4790326;29;20089;-84
2022/11/14 06:41:19;;;;;;;59.85;29.25;;;4.10;99.90;;;;;;4781900;29;20086;-84
2022/11/14 06:43:53;;;;;;;54.83;27.10;;;5.40;99.90;;;;;;4807295;29;20062;-85
2022/11/14 06:46:22;;;;;;;56.00;28.58;;;5.40;99.90;;;;;;4797443;29;20569;-85
2022/11/14 06:48:49;;;;;;;51.97;25.98;;;5.50;99.90;;;;;;4795134;29;20085;-84
2022/11/14 06:51:18;;;;;;;55.78;27.30;;;5.30;99.90;;;;;;4793264;29;20103;-84
2022/11/14 06:53:50;;;;;;;57.65;27.58;;;6.70;99.90;;;;;;4779984;29;20169;-84
2022/11/14 06:56:20;;;;;;;56.78;26.98;;;5.30;99.90;;;;;;4793552;29;20053;-84
2022/11/14 06:58:48;;;;;;;58.67;28.98;;;6.60;99.90;;;;;;4809566;29;20062;-85
2022/11/14 07:01:19;;;;;;;57.28;28.25;;;5.40;99.90;;;;;;4810534;29;20046;-85
2022/11/14 07:03:45;;;;;;;53.35;27.80;;;5.20;99.90;;;;;;4795065;29;20489;-85
2022/11/14 07:06:20;;;;;;;57.15;27.85;;;5.40;99.90;;;;;;4809440;29;20089;-85
2022/11/14 07:08:46;;;;;;;62.90;28.13;;;5.40;99.90;;;;;;4794540;29;20652;-83
2022/11/14 07:11:21;;;;;;;56.03;27.05;;;5.40;99.90;;;;;;4802659;29;20065;-85
2022/11/14 07:13:52;;;;;;;54.10;26.47;;;5.40;99.90;;;;;;4809346;29;20106;-85
2022/11/14 07:16:19;;;;;;;55.25;27.65;;;5.50;99.90;;;;;;4808735;29;20054;-84
2022/11/14 07:18:45;;;;;;;56.67;27.48;;;5.30;99.90;;;;;;4793667;29;20066;-85
2022/11/14 07:21:17;;;;;;;53.08;27.25;;;4.20;99.90;;;;;;4796007;29;20089;-84
2022/11/14 07:23:43;;;;;;;54.88;27.13;;;5.50;99.90;;;;;;4791496;29;20077;-84
2022/11/14 07:26:13;;;;;;;53.10;27.45;;;5.40;99.90;;;;;;4794019;29;20066;-83
2022/11/14 07:28:41;;;;;;;57.03;28.25;;;5.30;99.90;;;;;;4793533;29;20104;-84
2022/11/14 07:31:13;;;;;;;57.15;28.25;;;5.30;99.90;;;;;;4797194;29;20564;-84
2022/11/14 07:33:40;;;;;;;57.65;27.10;;;5.30;99.90;;;;;;4796439;29;20086;-84
2022/11/14 07:36:06;;;;;;;52.33;26.75;;;5.40;99.90;;;;;;4797290;29;20231;-84
2022/11/14 07:38:33;;;;;;;55.05;28.30;;;5.50;99.90;;;;;;4797075;29;20053;-83
2022/11/14 07:41:01;;;;;;;52.15;26.45;;;5.40;99.90;;;;;;4799853;29;20174;-84
2022/11/14 07:43:28;;;;;;;55.22;26.67;;;5.40;99.90;;;;;;4799448;29;20523;-83
2022/11/14 07:46:18;;;;;;;52.70;26.95;;;6.70;99.90;;;;;;4800036;29;20046;-85
2022/11/14 07:48:44;;;;;;;52.97;26.15;;;5.40;99.90;;;;;;4815617;29;20062;-84
2022/11/14 07:51:19;;;;;;;51.13;25.70;;;5.60;99.90;;;;;;4813442;29;20042;-83
2022/11/14 07:53:45;;;;;;;49.85;27.05;;;5.60;99.90;;;;;;4800532;29;20066;-84
2022/11/14 07:56:15;;;;;;;53.60;26.10;;;5.50;99.90;;;;;;4800843;29;20118;-84
2022/11/14 07:58:42;;;;;;;54.88;27.58;;;5.50;99.90;;;;;;4798432;29;20058;-84
2022/11/14 08:01:14;;;;;;;52.28;27.00;;;5.70;99.90;;;;;;4815682;29;20145;-85
2022/11/14 08:03:40;;;;;;;52.15;26.15;;;4.60;99.90;;;;;;4815332;29;20057;-84
2022/11/14 08:06:10;;;;;;;51.75;27.98;;;5.60;99.90;;;;;;4796019;29;20864;-84
2022/11/14 08:08:36;;;;;;;50.67;26.83;;;5.50;99.90;;;;;;4812922;29;20061;-84
2022/11/14 08:11:02;;;;;;;48.10;25.67;;;5.50;99.90;;;;;;4797219;29;20050;-84
2022/11/14 08:13:31;;;;;;;53.30;26.52;;;5.40;99.90;;;;;;4797840;29;20423;-84
2022/11/14 08:15:59;;;;;;;51.65;25.88;;;5.50;99.90;;;;;;4797578;29;20378;-84
2022/11/14 08:18:28;;;;;;;53.10;27.63;;;6.30;99.90;;;;;;4798339;29;20070;-84
2022/11/14 08:20:56;;;;;;;51.65;27.02;;;5.40;99.90;;;;;;4811080;29;20057;-85
2022/11/14 08:23:24;;;;;;;51.50;26.48;;;5.50;99.90;;;;;;4813865;29;20046;-84
2022/11/14 08:25:50;;;;;;;51.92;26.15;;;5.60;99.90;;;;;;4787598;29;20191;-84
2022/11/14 08:28:19;;;;;;;53.10;26.98;;;4.90;99.90;;;;;;4798398;29;20141;-84
2022/11/14 08:30:45;;;;;;;54.05;26.45;;;5.60;99.90;;;;;;4814404;29;20054;-85
2022/11/14 08:33:10;;;;;;;51.95;27.45;;;5.60;99.90;;;;;;4799991;29;20485;-85
2022/11/14 08:35:36;;;;;;;53.30;26.65;;;5.60;99.90;;;;;;4797438;29;20759;-84
2022/11/14 08:38:02;;;;;;;51.67;27.02;;;6.40;99.90;;;;;;4812872;29;20051;-84
2022/11/14 08:40:29;;;;;;;51.40;26.33;;;5.70;99.90;;;;;;4810390;29;20054;-84
2022/11/14 08:43:02;;;;;;;47.53;25.30;;;5.80;99.90;;;;;;4799968;29;20114;-84
2022/11/14 08:45:29;;;;;;;52.80;26.77;;;5.70;99.90;;;;;;4784590;29;20058;-84
2022/11/14 08:47:55;;;;;;;50.28;26.67;;;5.70;99.90;;;;;;4799512;29;20567;-85
2022/11/14 08:50:21;;;;;;;46.47;26.80;;;5.90;99.90;;;;;;4799637;29;20063;-85
2022/11/14 08:52:51;;;;;;;55.88;28.23;;;5.80;99.90;;;;;;4805282;29;20050;-85
2022/11/14 08:55:19;;;;;;;49.20;26.90;;;5.90;99.90;;;;;;4800199;29;20069;-85
2022/11/14 08:57:45;;;;;;;51.92;26.70;;;5.30;99.90;;;;;;4799511;29;20066;-84
2022/11/14 09:00:12;;;;;;;48.28;24.83;;;5.90;99.90;;;;;;4813158;29;20092;-85
2022/11/14 09:02:38;;;;;;;49.15;25.05;;;6.00;99.90;;;;;;4811614;29;20054;-84
2022/11/14 09:05:04;;;;;;;47.08;25.38;;;6.00;99.90;;;;;;4800391;29;20053;-84
2022/11/14 09:07:30;;;;;;;47.45;25.25;;;6.00;99.90;;;;;;4805723;29;20082;-84
2022/11/14 09:09:58;;;;;;;52.67;26.58;;;6.10;99.90;;;;;;4801996;29;20077;-84
2022/11/14 09:12:24;;;;;;;53.00;25.95;;;6.30;99.90;;;;;;4786112;29;20058;-84
2022/11/14 09:14:50;;;;;;;51.50;25.58;;;6.20;99.90;;;;;;4782107;29;20096;-83
2022/11/14 09:17:15;;;;;;;46.88;25.00;;;6.20;99.90;;;;;;4796476;29;20113;-84
2022/11/14 09:19:41;;;;;;;49.60;24.90;;;6.20;99.90;;;;;;4788899;29;20103;-84
2022/11/14 09:22:10;;;;;;;52.50;27.33;;;6.70;99.90;;;;;;4788614;29;20111;-85
2022/11/14 09:24:36;;;;;;;42.83;23.52;;;6.30;99.90;;;;;;4784941;29;20122;-84
2022/11/14 09:27:04;;;;;;;49.17;26.23;;;6.50;99.90;;;;;;4801689;29;20410;-84
2022/11/14 09:29:30;;;;;;;49.83;25.67;;;6.40;99.90;;;;;;4808666;29;20054;-84
2022/11/14 09:31:56;;;;;;;47.83;26.48;;;6.50;99.90;;;;;;4801542;29;20061;-84
2022/11/14 09:34:22;;;;;;;50.28;26.30;;;6.60;99.90;;;;;;4814146;29;20458;-84
2022/11/14 09:36:48;;;;;;;49.47;26.83;;;6.70;99.90;;;;;;4834417;29;20520;-84
2022/11/14 09:39:13;;;;;;;46.20;24.60;;;6.70;99.90;;;;;;4802774;29;20046;-85
2022/11/14 09:41:59;;;;;;;50.67;27.08;;;6.90;99.90;;;;;;4792015;29;20535;-84
2022/11/14 09:44:46;;;;;;;49.38;25.83;;;9.00;99.90;;;;;;4819459;29;20062;-84
2022/11/14 09:47:20;;;;;;;47.58;25.85;;;8.40;99.90;;;;;;4817426;29;20062;-85
2022/11/14 09:49:48;;;;;;;44.55;25.02;;;9.00;99.90;;;;;;4816673;29;20500;-85
2022/11/14 09:52:32;;;;;;;42.92;24.00;;;9.00;99.90;;;;;;4814657;29;20061;-83
2022/11/14 09:55:02;;;;;;;42.20;24.52;;;9.00;99.90;;;;;;4814686;29;20055;-84
2022/11/14 09:57:28;;;;;;;42.72;23.55;;;8.70;99.90;;;;;;4814750;29;20057;-85
2022/11/14 09:59:57;;;;;;;45.42;24.92;;;8.40;99.90;;;;;;4815982;29;20098;-84
2022/11/14 10:02:39;;;;;;;40.78;23.35;;;8.20;99.90;;;;;;4802369;29;20065;-85
2022/11/14 10:05:16;;;;;;;41.67;23.75;;;8.10;99.90;;;;;;4814960;29;20632;-84
2022/11/14 10:08:01;;;;;;;42.92;23.42;;;8.10;99.90;;;;;;4799597;29;20109;-85
2022/11/14 10:11:01;;;;;;;38.35;22.17;;;6.70;99.90;;;;;;4815756;29;20082;-86
2022/11/14 10:13:38;;;;;;;41.47;22.65;;;7.70;99.90;;;;;;4828867;29;20051;-85
2022/11/14 10:16:29;;;;;;;40.20;23.40;;;8.30;99.90;;;;;;4817714;29;20058;-84
2022/11/14 10:19:10;;;;;;;42.47;23.88;;;8.30;99.90;;;;;;4823909;29;20464;-84
2022/11/14 10:22:09;;;;;;;39.70;22.88;;;8.30;99.90;;;;;;4797516;29;20054;-84
2022/11/14 10:24:47;;;;;;;46.13;24.58;;;8.40;99.90;;;;;;4800122;29;20058;-81
2022/11/14 10:27:42;;;;;;;39.33;23.13;;;8.90;99.90;;;;;;4816116;29;20066;-88
2022/11/14 10:30:14;;;;;;;39.58;23.30;;;9.20;99.90;;;;;;4797143;29;20200;-84
2022/11/14 10:32:41;;;;;;;38.33;21.52;;;;;;;;;;4802821;29;20527;-86
2022/11/14 10:35:18;;;;;;;38.60;22.42;;;9.10;99.90;;;;;;4802654;29;20824;-86
2022/11/14 10:37:43;;;;;;;43.40;24.00;;;9.10;99.90;;;;;;4814367;29;20497;-86
2022/11/14 10:40:42;;;;;;;36.78;21.48;;;9.10;99.90;;;;;;4817528;29;20122;-86
2022/11/14 10:43:34;;;;;;;41.78;23.30;;;9.70;99.90;;;;;;4799204;29;20259;-86
2022/11/14 10:46:25;;;;;;;37.25;20.88;;;9.40;99.90;;;;;;4807545;29;20433;-86
2022/11/14 10:48:55;;;;;;;35.95;23.00;;;9.30;99.90;;;;;;4813495;29;20058;-87
2022/11/14 10:51:51;;;;;;;39.17;21.50;;;9.40;99.90;;;;;;4815110;29;20054;-85
2022/11/14 10:54:26;;;;;;;37.47;22.52;;;8.80;99.90;;;;;;4798931;29;20047;-86
2022/11/14 10:56:57;;;;;;;35.92;21.55;;;8.40;99.90;;;;;;4817569;29;20086;-89
2022/11/14 10:59:26;;;;;;;38.78;23.35;;;8.60;99.90;;;;;;4799408;29;20625;-86
2022/11/14 11:01:56;;;;;;;39.05;22.42;;;8.30;99.90;;;;;;4805345;29;20058;-85
2022/11/14 11:04:32;;;;;;;38.80;22.70;;;8.30;99.90;;;;;;4812330;29;20054;-85
2022/11/14 11:07:09;;;;;;;33.38;21.70;;;8.10;99.90;;;;;;4799636;29;20524;-84
2022/11/14 11:12:47;;;;;;;35.97;20.98;;;8.10;99.90;;;;;;4813369;29;20051;-85
2022/11/14 11:15:18;;;;;;;36.72;21.23;;;8.10;99.90;;;;;;4794026;29;20046;-84
2022/11/14 11:18:32;;;;;;;37.47;22.55;;;8.10;99.90;;;;;;4793381;29;20146;-83
2022/11/14 11:21:08;;;;;;;39.58;21.70;;;8.10;99.90;;;;;;4789245;29;20062;-85
2022/11/14 11:23:34;;;;;;;;;;;8.10;99.90;;;;;;4793026;29;20064;-83
2022/11/14 11:26:04;;;;;;;34.33;21.42;;;8.10;99.90;;;;;;4796481;29;19932;-84
2022/11/14 11:28:35;;;;;;;37.60;23.00;;;8.00;99.90;;;;;;4792945;29;20573;-83
2022/11/14 11:31:06;;;;;;;39.88;23.00;;;8.10;99.90;;;;;;4808137;29;20046;-82
2022/11/14 11:33:39;;;;;;;41.25;21.85;;;8.00;99.90;;;;;;4793121;29;20059;-83
2022/11/14 11:36:11;;;;;;;37.60;22.65;;;8.10;99.90;;;;;;4797920;29;20501;-83
2022/11/14 11:38:37;;;;;;;37.28;22.15;;;8.10;99.90;;;;;;4812037;29;20047;-86
2022/11/14 11:41:30;;;;;;;35.95;22.25;;;8.10;99.90;;;;;;4803701;29;20053;-87
2022/11/14 11:44:03;;;;;;;37.03;21.15;;;8.10;99.90;;;;;;4815546;29;20114;-83
2022/11/14 11:46:51;;;;;;;36.05;20.73;;;8.10;99.90;;;;;;4813015;29;20435;-84
2022/11/14 11:49:44;;;;;;;33.58;20.27;;;8.10;99.90;;;;;;4798296;29;20058;-83
2022/11/14 11:52:16;;;;;;;36.53;21.38;;;8.10;99.90;;;;;;4805141;29;20062;-83
2022/11/14 11:54:55;;;;;;;37.55;21.88;;;8.10;99.90;;;;;;4809440;29;20111;-85
2022/11/14 11:57:28;;;;;;;34.13;19.83;;;8.10;99.90;;;;;;4798455;29;20050;-83
2022/11/14 12:00:04;;;;;;;33.80;20.73;;;8.10;99.90;;;;;;4811856;29;20054;-84
2022/11/14 12:02:30;;;;;;;35.53;21.23;;;8.10;99.90;;;;;;4792506;29;20264;-84
2022/11/14 12:04:57;;;;;;;36.03;20.75;;;8.10;99.90;;;;;;4779090;29;20054;-85
2022/11/14 12:08:06;;;;;;;35.35;21.38;;;8.20;99.90;;;;;;4824996;29;20103;-84
2022/11/14 12:10:39;;;;;;;33.10;20.95;;;8.40;99.90;;;;;;4792667;29;20151;-84
2022/11/14 12:13:54;;;;;;;33.67;19.30;;;8.20;99.90;;;;;;4819159;29;20397;-84
2022/11/14 12:16:45;;;;;;;35.00;20.77;;;8.20;99.90;;;;;;4769673;29;20080;-84
2022/11/14 12:19:26;;;;;;;34.00;20.20;;;8.30;99.90;;;;;;4806265;29;20050;-84
2022/11/14 12:22:17;;;;;;;33.33;20.85;;;8.30;99.90;;;;;;4807161;29;20101;-83
2022/11/14 12:24:51;;;;;;;33.70;20.75;;;8.30;99.90;;;;;;4791681;29;20143;-84
2022/11/14 12:27:30;;;;;;;31.75;19.58;;;8.40;99.90;;;;;;4788255;29;20081;-84
2022/11/14 12:30:02;;;;;;;33.42;20.20;;;8.40;99.90;;;;;;4808251;29;20074;-85
2022/11/14 12:32:42;;;;;;;32.35;20.08;;;8.40;99.90;;;;;;4813088;29;20212;-84
2022/11/14 12:35:21;;;;;;;37.35;20.63;;;8.40;99.90;;;;;;4783976;29;20054;-85
2022/11/14 12:37:50;;;;;;;33.78;20.17;;;8.40;99.90;;;;;;4798003;29;20054;-85
2022/11/14 12:40:27;;;;;;;34.15;20.30;;;8.50;99.90;;;;;;4811663;29;20069;-85
2022/11/14 12:42:55;;;;;;;36.63;21.45;;;8.50;99.90;;;;;;4812964;29;20058;-85
2022/11/14 12:45:39;;;;;;;36.95;22.30;;;8.50;99.90;;;;;;4781567;29;20051;-84
2022/11/14 12:48:27;;;;;;;37.80;22.73;;;8.60;99.90;;;;;;4797371;29;20473;-84
2022/11/14 12:50:58;;;;;;;32.75;20.10;;;8.60;99.90;;;;;;4808511;29;20057;-85
2022/11/14 12:53:35;;;;;;;32.33;18.70;;;8.50;99.90;;;;;;4797512;29;20058;-84
2022/11/14 12:56:31;;;;;;;36.67;20.90;;;8.60;99.90;;;;;;4809232;29;20061;-85